Praia, Cape Verde
Current Conditions -  °F | °C
As of 2:00 AM on Monday 20 Oct 2014 (Local Time) from GVNP Reporting Station
Few Clouds Few Clouds  
Wind Chill: 75°   Ceiling: Unl
Heat Index: 75°   Visibility: 6mi
Dew Point: 75°   Wind: 6mph
Humidity: 100%   Direction: 10°N
Pressure: 29.91"   Gusts: NA
Location:  14.93°N, 23.54°W
Report Text: GVNP 200300Z 01005KT 9999 FEW014 24/24 Q1013 NOSIG
Loading
Personal Weather Stations






























Interactive Weather Map New forecast layout! Learn more

10-Day Weather Forecast

Advertisements
Track Severe Weather on mobile